Time;durP1;ratioP1;P1;durP2;ratioP2;P2;SDS_P1;SDS_P2;PMS_P1;PMS_P2;Temp;Humidity;BMP_temperature;BMP_pressure;BME280_temperature;BME280_humidity;BME280_pressure;Samples;Min_cycle;Max_cycle;Signal;HPM_P1;HPM_P2
2024/03/14 00:01:56;;;;;;;9.65;3.55;;;10.80;99.90;;;;;;6274184;28;20476;-83
2024/03/14 00:04:58;;;;;;;12.05;4.05;;;10.70;99.90;;;;;;6231458;28;20057;-84
2024/03/14 00:08:00;;;;;;;10.55;3.65;;;10.70;99.90;;;;;;6274172;28;20130;-84
2024/03/14 00:11:05;;;;;;;13.02;3.83;;;10.70;99.90;;;;;;6232049;28;20056;-85
2024/03/14 00:14:08;;;;;;;15.18;3.88;;;10.70;99.90;;;;;;6240692;28;20458;-84
2024/03/14 00:17:09;;;;;;;11.70;3.75;;;10.70;99.90;;;;;;6256153;28;20056;-84
2024/03/14 00:20:12;;;;;;;13.52;3.58;;;10.70;99.90;;;;;;6250742;28;20060;-85
2024/03/14 00:23:14;;;;;;;10.55;3.83;;;10.60;99.90;;;;;;6269156;28;20132;-83
2024/03/14 00:26:15;;;;;;;11.18;3.50;;;10.60;99.90;;;;;;6246466;28;20052;-84
2024/03/14 00:29:17;;;;;;;12.02;3.45;;;10.70;99.90;;;;;;6242482;28;20492;-85
2024/03/14 00:32:19;;;;;;;11.52;3.30;;;10.70;99.90;;;;;;6272913;28;20079;-84
2024/03/14 00:35:21;;;;;;;11.15;3.25;;;10.60;99.90;;;;;;6231817;28;20057;-85
2024/03/14 00:38:23;;;;;;;7.93;3.10;;;10.60;99.90;;;;;;6272998;28;20057;-83
2024/03/14 00:41:25;;;;;;;12.50;3.10;;;10.50;99.90;;;;;;6248703;28;20045;-85
2024/03/14 00:44:26;;;;;;;8.07;2.63;;;10.60;99.90;;;;;;6241547;28;20068;-84
2024/03/14 00:47:28;;;;;;;10.38;2.70;;;10.60;99.90;;;;;;6245193;28;20053;-85
2024/03/14 00:50:33;;;;;;;9.70;2.60;;;10.60;99.90;;;;;;6255315;28;20499;-84
2024/03/14 00:53:36;;;;;;;12.30;2.90;;;10.60;99.90;;;;;;6231433;28;20049;-84
2024/03/14 00:56:37;;;;;;;9.02;2.72;;;10.50;99.90;;;;;;6254115;28;20049;-85
2024/03/14 00:59:39;;;;;;;10.38;2.58;;;10.50;99.90;;;;;;6244007;28;20575;-85
2024/03/14 01:02:41;;;;;;;8.98;2.40;;;10.60;99.90;;;;;;6273433;28;20057;-85
2024/03/14 01:05:44;;;;;;;7.50;2.35;;;10.50;99.90;;;;;;6249148;28;20061;-86
2024/03/14 01:08:46;;;;;;;12.30;2.83;;;10.50;99.90;;;;;;6246456;28;20041;-85
2024/03/14 01:11:48;;;;;;;9.77;2.60;;;10.40;99.90;;;;;;6255498;28;20055;-85
2024/03/14 01:14:50;;;;;;;8.00;2.50;;;10.50;99.90;;;;;;6233955;28;20180;-84
2024/03/14 01:17:52;;;;;;;9.25;2.70;;;10.40;99.90;;;;;;6255563;28;20481;-84
2024/03/14 01:20:53;;;;;;;11.98;3.10;;;10.40;99.90;;;;;;6231976;28;20046;-84
2024/03/14 01:23:57;;;;;;;9.20;2.88;;;10.30;99.90;;;;;;6262972;28;20068;-83
2024/03/14 01:26:59;;;;;;;9.27;2.60;;;10.30;99.90;;;;;;6255764;28;20112;-82
2024/03/14 01:30:01;;;;;;;14.15;3.33;;;10.20;99.90;;;;;;6243516;28;20045;-84
2024/03/14 01:33:03;;;;;;;12.00;3.20;;;10.20;99.90;;;;;;6272366;28;20053;-84
2024/03/14 01:36:05;;;;;;;12.32;2.90;;;10.20;99.90;;;;;;6231760;28;20436;-84
2024/03/14 01:39:09;;;;;;;10.13;3.22;;;10.20;99.90;;;;;;6254791;28;20508;-85
2024/03/14 01:42:11;;;;;;;8.07;2.65;;;10.20;99.90;;;;;;6231235;28;20049;-83
2024/03/14 01:45:17;;;;;;;9.27;2.60;;;10.10;99.90;;;;;;6235769;28;20104;-84
2024/03/14 01:48:19;;;;;;;9.57;2.55;;;10.10;99.90;;;;;;6254012;28;20061;-84
2024/03/14 01:51:21;;;;;;;9.38;3.00;;;10.10;99.90;;;;;;6245269;28;20492;-83
2024/03/14 01:54:22;;;;;;;8.68;2.50;;;10.10;99.90;;;;;;6246588;28;20056;-85
2024/03/14 01:57:25;;;;;;;8.38;2.60;;;10.20;99.90;;;;;;6243075;28;20050;-84
2024/03/14 02:00:29;;;;;;;12.50;2.80;;;10.20;99.90;;;;;;6259174;28;20059;-83
2024/03/14 02:03:31;;;;;;;7.70;2.53;;;10.10;99.90;;;;;;6227586;28;20409;-83
2024/03/14 02:06:33;;;;;;;11.77;2.58;;;10.20;99.90;;;;;;6248153;28;20057;-82
2024/03/14 02:09:34;;;;;;;9.43;2.55;;;10.20;99.90;;;;;;6249933;28;20059;-83
2024/03/14 02:12:36;;;;;;;9.43;2.33;;;10.20;99.90;;;;;;6246951;28;20126;-83
2024/03/14 02:15:38;;;;;;;12.43;2.40;;;10.20;99.90;;;;;;6233921;28;20495;-84
2024/03/14 02:18:40;;;;;;;8.73;2.55;;;10.20;99.90;;;;;;6270516;28;20055;-84
2024/03/14 02:21:42;;;;;;;8.20;2.35;;;10.10;99.90;;;;;;6229348;28;20049;-84
2024/03/14 02:24:43;;;;;;;11.43;2.67;;;10.10;99.90;;;;;;6270345;28;20065;-83
2024/03/14 02:27:45;;;;;;;12.38;2.65;;;10.10;99.90;;;;;;6239919;28;20045;-84
2024/03/14 02:30:46;;;;;;;6.10;2.25;;;10.00;99.90;;;;;;6242714;28;20061;-83
2024/03/14 02:33:48;;;;;;;8.70;2.42;;;10.00;99.90;;;;;;6220636;28;20413;-83
2024/03/14 02:36:50;;;;;;;7.63;2.40;;;9.90;99.90;;;;;;6238086;28;20049;-83
2024/03/14 02:39:53;;;;;;;10.10;2.55;;;9.90;99.90;;;;;;6252012;28;20053;-83
2024/03/14 02:42:55;;;;;;;10.07;2.28;;;9.90;99.90;;;;;;6245458;28;20453;-83
2024/03/14 02:45:56;;;;;;;7.82;2.40;;;9.80;99.90;;;;;;6265200;28;20052;-83
2024/03/14 02:48:58;;;;;;;11.35;2.63;;;9.80;99.90;;;;;;6220938;28;20065;-84
2024/03/14 02:52:00;;;;;;;8.40;2.30;;;9.80;99.90;;;;;;6269300;28;20057;-84
2024/03/14 02:55:01;;;;;;;9.35;2.53;;;9.70;99.90;;;;;;6244366;28;20489;-82
2024/03/14 02:58:03;;;;;;;10.82;2.30;;;9.60;99.90;;;;;;6250067;28;20258;-84
2024/03/14 03:01:05;;;;;;;9.68;2.65;;;9.70;99.90;;;;;;6232848;28;20050;-83
2024/03/14 03:04:09;;;;;;;7.95;2.58;;;9.60;99.90;;;;;;6227870;28;20481;-83
2024/03/14 03:07:12;;;;;;;8.00;2.28;;;9.60;99.90;;;;;;6251937;28;20049;-84
2024/03/14 03:10:16;;;;;;;11.90;2.40;;;9.60;99.90;;;;;;6243749;28;20053;-83
2024/03/14 03:13:20;;;;;;;9.57;2.53;;;9.70;99.90;;;;;;6249818;28;20114;-83
2024/03/14 03:16:22;;;;;;;10.32;2.28;;;9.70;99.90;;;;;;6234992;28;20049;-84
2024/03/14 03:19:23;;;;;;;8.20;2.22;;;9.70;99.90;;;;;;6268933;28;20067;-83
2024/03/14 03:22:36;;;;;;;8.70;2.38;;;9.70;99.90;;;;;;6245353;28;20042;-83
2024/03/14 03:25:38;;;;;;;7.68;2.10;;;9.80;99.90;;;;;;6268815;28;20519;-83
2024/03/14 03:28:40;;;;;;;7.32;2.28;;;9.80;99.90;;;;;;6241766;28;20076;-83
2024/03/14 03:31:41;;;;;;;8.60;2.47;;;9.70;99.90;;;;;;6238152;28;20056;-83
2024/03/14 03:34:44;;;;;;;9.73;2.50;;;9.70;99.90;;;;;;6269567;28;20057;-83
2024/03/14 03:37:47;;;;;;;10.50;2.10;;;9.70;99.90;;;;;;6227978;28;20053;-84
2024/03/14 03:40:49;;;;;;;9.77;2.50;;;9.60;99.90;;;;;;6247899;28;20064;-84
2024/03/14 03:43:50;;;;;;;8.35;2.30;;;9.60;99.90;;;;;;6247135;28;20485;-83
2024/03/14 03:46:52;;;;;;;9.25;2.47;;;9.60;99.90;;;;;;6255915;28;20068;-83
2024/03/14 03:49:55;;;;;;;8.25;2.65;;;9.50;99.90;;;;;;6250074;28;20060;-84
2024/03/14 03:52:56;;;;;;;9.00;2.40;;;9.50;99.90;;;;;;6255860;28;20061;-84
2024/03/14 03:55:58;;;;;;;11.38;2.72;;;9.50;99.90;;;;;;6274376;28;20757;-84
2024/03/14 03:59:00;;;;;;;8.55;2.40;;;9.50;99.90;;;;;;6245545;28;20053;-84
2024/03/14 04:02:04;;;;;;;10.05;2.80;;;9.50;99.90;;;;;;6273384;28;20045;-84
2024/03/14 04:05:09;;;;;;;8.10;2.40;;;9.50;99.90;;;;;;6249635;28;20516;-83
2024/03/14 04:08:11;;;;;;;10.95;2.50;;;9.50;99.90;;;;;;6247843;28;20804;-84
2024/03/14 04:11:12;;;;;;;10.07;2.58;;;9.50;99.90;;;;;;6256924;28;20054;-84
2024/03/14 04:14:14;;;;;;;6.53;2.25;;;9.50;99.90;;;;;;6245099;28;20543;-83
2024/03/14 04:17:16;;;;;;;9.27;2.50;;;9.50;99.90;;;;;;6254454;28;20052;-83
2024/03/14 04:20:18;;;;;;;9.00;2.42;;;9.50;99.90;;;;;;6255761;28;20530;-83
2024/03/14 04:23:20;;;;;;;10.40;2.40;;;9.40;99.90;;;;;;6231228;28;20049;-84
2024/03/14 04:26:22;;;;;;;6.82;2.20;;;9.40;99.90;;;;;;6272462;28;20060;-83
2024/03/14 04:29:26;;;;;;;9.98;2.33;;;9.50;99.90;;;;;;6251019;28;20056;-83
2024/03/14 04:32:27;;;;;;;8.38;2.20;;;9.50;99.90;;;;;;6249514;28;20053;-84
2024/03/14 04:35:31;;;;;;;10.95;2.20;;;9.40;99.90;;;;;;6273145;28;20060;-83
2024/03/14 04:38:32;;;;;;;7.40;2.22;;;9.40;99.90;;;;;;6248894;28;20053;-84
2024/03/14 04:41:35;;;;;;;7.47;2.10;;;9.40;99.90;;;;;;6272479;28;20065;-83
2024/03/14 04:44:36;;;;;;;6.45;2.10;;;9.30;99.90;;;;;;6257405;28;20076;-84
2024/03/14 04:47:38;;;;;;;8.10;2.03;;;9.30;99.90;;;;;;6247524;28;20396;-82
2024/03/14 04:50:43;;;;;;;6.45;2.15;;;9.30;99.90;;;;;;6247853;28;20045;-83
2024/03/14 04:53:44;;;;;;;7.30;2.10;;;9.30;99.90;;;;;;6262910;28;20066;-83
2024/03/14 04:56:46;;;;;;;7.95;2.10;;;9.30;99.90;;;;;;6253927;28;20056;-83
2024/03/14 04:59:48;;;;;;;10.77;2.40;;;9.20;99.90;;;;;;6240186;28;20069;-82
2024/03/14 05:02:50;;;;;;;8.63;2.20;;;9.30;99.90;;;;;;6241838;28;20041;-82
2024/03/14 05:05:56;;;;;;;7.32;2.00;;;9.30;99.90;;;;;;6270914;28;20052;-82
2024/03/14 05:08:58;;;;;;;8.32;2.08;;;9.30;99.90;;;;;;6269309;28;20053;-83
2024/03/14 05:11:59;;;;;;;7.38;1.80;;;9.30;99.90;;;;;;6246997;28;20053;-83
2024/03/14 05:15:05;;;;;;;6.72;1.90;;;9.30;99.90;;;;;;6265184;28;20065;-82
2024/03/14 05:18:08;;;;;;;7.63;2.13;;;9.30;99.90;;;;;;6222565;28;20068;-84
2024/03/14 05:21:10;;;;;;;5.00;1.73;;;9.30;99.90;;;;;;6258026;28;20060;-82
2024/03/14 05:24:12;;;;;;;8.05;2.30;;;9.30;99.90;;;;;;6271140;28;20194;-83
2024/03/14 05:27:13;;;;;;;8.30;2.30;;;9.20;99.90;;;;;;6229191;28;20046;-83
2024/03/14 05:30:17;;;;;;;5.65;1.98;;;9.20;99.90;;;;;;6260014;28;20057;-82
2024/03/14 05:33:20;;;;;;;7.03;2.20;;;9.20;99.90;;;;;;6256589;28;20096;-82
2024/03/14 05:36:22;;;;;;;7.97;2.13;;;9.20;99.90;;;;;;6247292;28;20258;-83
2024/03/14 05:39:24;;;;;;;10.27;2.58;;;9.20;99.90;;;;;;6251123;28;20061;-82
2024/03/14 05:42:25;;;;;;;8.95;2.85;;;9.20;99.90;;;;;;6269758;28;20416;-84
2024/03/14 05:45:33;;;;;;;9.18;2.90;;;9.20;99.90;;;;;;6225146;28;20057;-80
2024/03/14 05:48:35;;;;;;;13.30;3.60;;;9.20;99.90;;;;;;6240058;28;20084;-84
2024/03/14 05:51:37;;;;;;;11.82;3.53;;;9.30;99.90;;;;;;6252408;28;20571;-85
2024/03/14 05:54:39;;;;;;;7.82;3.60;;;9.30;99.90;;;;;;6245995;28;20057;-84
2024/03/14 05:57:41;;;;;;;12.52;4.45;;;9.20;99.90;;;;;;6269037;28;20076;-85
2024/03/14 06:00:43;;;;;;;12.32;4.45;;;9.10;99.90;;;;;;6215357;28;20192;-84
2024/03/14 06:03:46;;;;;;;11.25;4.47;;;9.20;99.90;;;;;;6244105;28;20179;-84
2024/03/14 06:06:50;;;;;;;15.05;5.10;;;9.20;99.90;;;;;;6251476;28;20060;-85
2024/03/14 06:09:52;;;;;;;15.52;6.15;;;9.20;99.90;;;;;;6244862;28;20050;-85
2024/03/14 06:12:54;;;;;;;12.43;5.88;;;9.30;99.90;;;;;;6264116;28;20066;-84
2024/03/14 06:15:55;;;;;;;13.85;6.28;;;9.30;99.90;;;;;;6239828;28;20049;-84
2024/03/14 06:18:59;;;;;;;14.20;6.55;;;9.30;99.90;;;;;;6269171;28;20053;-85
2024/03/14 06:22:02;;;;;;;16.52;6.72;;;9.40;99.90;;;;;;6245864;28;20068;-85
2024/03/14 06:25:06;;;;;;;15.50;7.30;;;9.40;99.90;;;;;;6269117;28;20098;-85
2024/03/14 06:28:10;;;;;;;15.25;7.45;;;9.50;99.90;;;;;;6242545;28;20503;-85
2024/03/14 06:31:12;;;;;;;17.08;7.72;;;9.50;99.90;;;;;;6251537;28;20057;-85
2024/03/14 06:34:15;;;;;;;18.95;7.60;;;9.50;99.90;;;;;;6202382;28;20359;-85
2024/03/14 06:37:17;;;;;;;15.20;7.45;;;9.60;99.90;;;;;;6268226;28;20051;-86
2024/03/14 06:40:21;;;;;;;13.93;7.75;;;9.60;99.90;;;;;;6244915;28;20292;-86
2024/03/14 06:43:23;;;;;;;12.73;7.43;;;9.60;99.90;;;;;;6234962;28;20049;-87
2024/03/14 06:46:26;;;;;;;18.48;8.60;;;9.60;99.90;;;;;;6226723;28;20057;-85
2024/03/14 06:49:28;;;;;;;14.48;8.02;;;9.60;99.90;;;;;;6241293;28;20138;-84
2024/03/14 06:52:29;;;;;;;16.17;8.27;;;9.60;99.90;;;;;;6250586;28;20057;-83
2024/03/14 06:55:31;;;;;;;17.25;8.30;;;9.70;99.90;;;;;;6227993;28;20064;-84
2024/03/14 06:58:33;;;;;;;19.40;8.65;;;9.70;99.90;;;;;;6251042;28;20422;-84
2024/03/14 07:01:35;;;;;;;18.20;8.63;;;9.70;99.90;;;;;;6226319;28;20061;-84
2024/03/14 07:04:37;;;;;;;18.10;8.60;;;9.80;99.90;;;;;;6267978;28;20056;-84
2024/03/14 07:07:39;;;;;;;16.55;8.57;;;9.80;99.90;;;;;;6226887;28;20052;-84
2024/03/14 07:10:41;;;;;;;14.00;7.95;;;9.80;99.90;;;;;;6267729;28;20053;-84
2024/03/14 07:13:48;;;;;;;17.98;7.80;;;9.90;99.90;;;;;;6251674;28;20106;-85
2024/03/14 07:16:50;;;;;;;19.27;8.40;;;10.00;99.90;;;;;;6224339;28;20049;-84
2024/03/14 07:19:54;;;;;;;16.67;8.13;;;10.10;99.90;;;;;;6273476;28;20064;-85
2024/03/14 07:22:58;;;;;;;18.13;7.03;;;10.20;99.90;;;;;;6250975;28;20061;-85
2024/03/14 07:26:02;;;;;;;15.93;7.05;;;10.20;99.90;;;;;;6257437;28;20068;-86
2024/03/14 07:29:05;;;;;;;16.42;7.13;;;10.30;99.90;;;;;;6252886;28;20045;-85
2024/03/14 07:32:07;;;;;;;15.20;6.45;;;10.40;99.90;;;;;;6239633;28;20064;-85
2024/03/14 07:35:11;;;;;;;19.67;6.97;;;10.50;99.90;;;;;;6263450;28;20051;-86
2024/03/14 07:38:19;;;;;;;14.63;6.55;;;10.50;99.90;;;;;;6230211;28;20061;-84
2024/03/14 07:41:22;;;;;;;13.18;6.32;;;10.50;99.90;;;;;;6224555;28;20536;-84
2024/03/14 07:44:26;;;;;;;14.68;6.53;;;10.60;99.90;;;;;;6248720;28;20163;-84
2024/03/14 07:47:32;;;;;;;15.25;5.72;;;10.60;99.90;;;;;;6233228;28;20056;-86
2024/03/14 07:50:33;;;;;;;12.63;5.88;;;10.70;99.90;;;;;;6273463;28;20488;-84
2024/03/14 07:53:35;;;;;;;16.05;6.20;;;10.70;99.90;;;;;;6249786;28;20068;-83
2024/03/14 07:56:37;;;;;;;12.85;5.45;;;10.80;99.90;;;;;;6253923;28;20568;-85
2024/03/14 07:59:39;;;;;;;10.40;5.13;;;10.90;99.90;;;;;;6246012;28;20404;-84
2024/03/14 08:02:42;;;;;;;14.80;5.00;;;10.90;99.90;;;;;;6246916;28;20058;-82
2024/03/14 08:05:50;;;;;;;10.20;5.03;;;11.00;99.90;;;;;;6271142;28;20531;-78
2024/03/14 08:08:52;;;;;;;12.05;5.00;;;11.00;99.90;;;;;;6222101;28;20046;-82
2024/03/14 08:11:54;;;;;;;11.70;4.22;;;11.20;99.90;;;;;;6270789;28;20064;-81
2024/03/14 08:14:58;;;;;;;10.93;4.63;;;11.20;99.90;;;;;;6247022;28;20057;-81
2024/03/14 08:18:00;;;;;;;12.70;4.47;;;11.30;99.90;;;;;;6271692;28;20078;-82
2024/03/14 08:21:05;;;;;;;11.68;4.47;;;11.40;99.90;;;;;;6247084;28;20100;-81
2024/03/14 08:24:11;;;;;;;10.05;3.88;;;11.40;99.90;;;;;;6270391;28;20049;-81
2024/03/14 08:27:14;;;;;;;11.10;4.13;;;11.50;99.90;;;;;;6222270;28;20057;-82
2024/03/14 08:30:22;;;;;;;10.88;4.05;;;11.50;99.90;;;;;;6242977;28;20075;-87
2024/03/14 08:33:23;;;;;;;8.30;4.03;;;11.60;99.90;;;;;;6205136;28;20328;-87
2024/03/14 08:36:27;;;;;;;5.35;3.22;;;11.70;99.90;;;;;;6254044;28;20144;-90
2024/03/14 08:39:29;;;;;;;8.98;3.40;;;11.90;99.90;;;;;;6248602;28;20164;-89
2024/03/14 08:42:32;;;;;;;10.15;3.70;;;12.00;99.90;;;;;;6254845;28;20068;-87
2024/03/14 08:45:48;;;;;;;11.80;3.65;;;12.00;99.90;;;;;;6192331;28;20401;-87
2024/03/14 08:48:50;;;;;;;6.63;3.20;;;12.20;99.90;;;;;;6273404;28;20063;-88
2024/03/14 08:51:52;;;;;;;8.43;3.03;;;12.30;99.90;;;;;;6231241;28;20129;-90
2024/03/14 08:54:53;;;;;;;12.13;3.63;;;12.50;99.90;;;;;;6254694;28;20057;-87
2024/03/14 08:57:55;;;;;;;8.40;3.28;;;12.50;99.90;;;;;;6250628;28;20159;-86
2024/03/14 09:00:58;;;;;;;8.35;3.22;;;12.50;99.90;;;;;;6239785;28;20492;-87
2024/03/14 09:04:00;;;;;;;8.48;3.08;;;12.60;99.90;;;;;;6204980;28;20095;-88
2024/03/14 09:07:01;;;;;;;5.93;2.67;;;12.60;99.90;;;;;;6253296;28;20049;-87
2024/03/14 09:10:04;;;;;;;11.10;3.08;;;12.80;99.90;;;;;;6246696;28;20049;-87
2024/03/14 09:13:07;;;;;;;7.80;3.17;;;12.80;99.90;;;;;;6264476;28;20053;-88
2024/03/14 09:16:12;;;;;;;9.00;2.67;;;12.90;99.90;;;;;;6262152;28;20051;-87
2024/03/14 09:19:14;;;;;;;6.72;2.70;;;12.90;99.10;;;;;;6247153;28;20049;-88
2024/03/14 09:22:16;;;;;;;7.03;2.67;;;13.10;99.80;;;;;;6271599;28;20057;-88
2024/03/14 09:25:19;;;;;;;6.65;2.20;;;13.30;98.40;;;;;;6228466;28;20548;-84
2024/03/14 09:28:21;;;;;;;7.38;2.20;;;13.20;95.70;;;;;;6254955;28;20551;-87
2024/03/14 09:31:23;;;;;;;6.53;2.40;;;13.20;95.90;;;;;;6229336;28;20057;-85
2024/03/14 09:34:25;;;;;;;8.02;2.25;;;13.20;96.90;;;;;;6209566;28;20056;-88
2024/03/14 09:37:27;;;;;;;6.50;2.28;;;13.30;96.20;;;;;;6251566;28;20049;-85
2024/03/14 09:40:29;;;;;;;6.22;2.20;;;13.20;95.80;;;;;;6248072;28;20053;-83
2024/03/14 09:43:31;;;;;;;9.40;2.50;;;13.30;96.30;;;;;;6262852;28;20053;-88
2024/03/14 09:46:34;;;;;;;7.18;2.33;;;13.30;96.20;;;;;;6250430;28;20060;-88
2024/03/14 09:49:35;;;;;;;9.95;2.67;;;13.30;95.20;;;;;;6262672;28;20067;-87
2024/03/14 09:55:48;;;;;;;6.43;2.38;;;13.50;95.90;;;;;;6282351;23;20064;-89
2024/03/14 09:58:56;;;;;;;6.25;2.28;;;13.50;93.00;;;;;;6229095;28;20383;-90
2024/03/14 10:01:58;;;;;;;6.75;2.45;;;13.60;92.00;;;;;;6225680;28;20053;-87
2024/03/14 10:05:01;;;;;;;9.85;2.72;;;13.70;92.00;;;;;;6231287;28;20063;-87
2024/03/14 10:08:04;;;;;;;7.75;2.88;;;13.70;92.90;;;;;;6208244;28;20053;-85
2024/03/14 10:11:06;;;;;;;8.15;2.75;;;13.70;90.20;;;;;;6251888;28;20052;-88
2024/03/14 10:14:20;;;;;;;9.48;2.95;;;13.70;89.90;;;;;;6201724;28;20125;-89
2024/03/14 10:17:22;;;;;;;8.45;2.58;;;13.70;88.80;;;;;;6206821;28;20069;-88
2024/03/14 10:20:23;;;;;;;6.65;2.58;;;13.80;89.30;;;;;;6249392;28;20054;-85
2024/03/14 10:23:25;;;;;;;8.43;2.78;;;14.00;91.50;;;;;;6206177;28;20053;-86
2024/03/14 10:26:27;;;;;;;9.50;2.60;;;14.10;89.50;;;;;;6245395;28;20049;-86
2024/03/14 10:29:36;;;;;;;7.57;2.30;;;14.30;91.00;;;;;;6206676;28;20049;-86
2024/03/14 10:32:38;;;;;;;;;;;14.40;84.00;;;;;;6223254;28;20058;-91
2024/03/14 10:35:40;;;;;;;10.52;2.50;;;14.40;76.60;;;;;;6233381;28;19948;-88
2024/03/14 10:38:43;;;;;;;7.63;2.25;;;14.40;80.50;;;;;;6210884;28;20058;-91
2024/03/14 10:41:46;;;;;;;9.02;2.33;;;14.50;81.80;;;;;;6251792;28;20057;-87
2024/03/14 10:44:47;;;;;;;8.48;2.30;;;14.60;68.30;;;;;;6224165;28;20054;-89
2024/03/14 10:47:49;;;;;;;7.22;2.10;;;14.70;66.70;;;;;;6228767;28;20050;-90
2024/03/14 10:50:54;;;;;;;6.80;1.98;;;14.90;64.70;;;;;;6229649;28;20045;-91
2024/03/14 10:53:55;;;;;;;8.23;2.47;;;15.10;58.80;;;;;;6229490;28;20068;-87
2024/03/14 10:56:57;;;;;;;7.30;2.00;;;15.20;42.60;;;;;;6237997;28;20049;-91
2024/03/14 10:59:59;;;;;;;7.80;2.13;;;15.00;30.40;;;;;;6197294;28;20527;-85
2024/03/14 11:03:01;;;;;;;6.07;2.20;;;15.00;39.30;;;;;;6243035;28;20493;-85
2024/03/14 11:06:04;;;;;;;7.05;2.08;;;15.20;50.30;;;;;;6219591;28;20062;-86
2024/03/14 11:09:08;;;;;;;10.27;2.47;;;15.30;34.00;;;;;;6246216;28;20053;-92
2024/03/14 11:12:10;;;;;;;5.47;1.98;;;15.30;36.70;;;;;;6250383;28;20503;-84
2024/03/14 11:15:13;;;;;;;7.60;2.30;;;15.40;34.00;;;;;;6209631;28;20545;-84
2024/03/14 11:18:16;;;;;;;6.70;2.08;;;15.50;37.70;;;;;;6222302;28;20058;-84
2024/03/14 11:21:19;;;;;;;8.80;2.08;;;15.60;23.50;;;;;;6219416;28;20050;-92
2024/03/14 11:24:25;;;;;;;5.50;1.80;;;15.80;15.10;;;;;;6226269;28;20049;-88
2024/03/14 11:27:26;;;;;;;7.78;1.90;;;15.70;16.80;;;;;;6202115;28;20058;-86
2024/03/14 11:30:29;;;;;;;9.95;2.45;;;15.70;26.50;;;;;;6200316;28;20062;-87
2024/03/14 11:33:33;;;;;;;8.63;2.35;;;15.70;15.80;;;;;;6217220;28;20065;-85
2024/03/14 11:36:35;;;;;;;9.50;2.50;;;15.60;17.10;;;;;;6218587;28;20060;-83
2024/03/14 11:39:37;;;;;;;5.65;1.92;;;15.70;12.30;;;;;;6219091;28;20147;-84
2024/03/14 11:42:38;;;;;;;7.30;2.13;;;15.70;4.60;;;;;;6219138;28;20050;-85
2024/03/14 11:45:40;;;;;;;8.38;2.05;;;15.80;18.50;;;;;;6224516;28;20114;-84
2024/03/14 11:48:42;;;;;;;5.25;2.00;;;16.00;9.80;;;;;;6205269;28;20124;-94
2024/03/14 11:51:47;;;;;;;8.15;1.92;;;16.10;3.00;;;;;;6221334;28;20046;-85
2024/03/14 11:54:49;;;;;;;9.45;2.00;;;16.50;1.60;;;;;;6240813;28;20061;-83
2024/03/14 11:57:51;;;;;;;10.00;2.17;;;16.90;1.00;;;;;;6219305;28;20050;-82
2024/03/14 12:00:53;;;;;;;6.95;2.17;;;17.10;1.00;;;;;;6237102;28;20064;-85
2024/03/14 12:03:57;;;;;;;7.55;2.20;;;17.60;1.00;;;;;;6224770;28;20061;-82
2024/03/14 12:07:03;;;;;;;9.52;2.10;;;18.40;1.00;;;;;;6246511;28;20057;-84
2024/03/14 12:10:06;;;;;;;5.50;1.58;;;18.80;1.00;;;;;;6247676;28;20136;-86
2024/03/14 12:13:08;;;;;;;6.28;2.10;;;19.30;1.00;;;;;;6221215;28;20045;-86
2024/03/14 12:16:11;;;;;;;4.32;1.80;;;18.90;1.00;;;;;;6248937;28;20061;-83
2024/03/14 12:19:16;;;;;;;5.72;1.67;;;19.00;1.00;;;;;;6222341;28;20187;-87
2024/03/14 12:22:20;;;;;;;8.57;2.63;;;18.70;1.00;;;;;;6221752;28;20054;-90
2024/03/14 12:25:21;;;;;;;6.95;1.83;;;18.30;1.00;;;;;;6247132;28;20057;-88
2024/03/14 12:28:23;;;;;;;6.07;1.77;;;18.10;1.00;;;;;;6229574;28;20045;-91
2024/03/14 12:31:25;;;;;;;9.23;2.25;;;18.00;1.00;;;;;;6236605;28;20056;-92
2024/03/14 12:34:27;;;;;;;7.47;1.83;;;17.70;1.00;;;;;;6220061;28;20062;-87
2024/03/14 12:37:28;;;;;;;7.13;1.83;;;17.40;1.00;;;;;;6232472;28;20052;-87
2024/03/14 12:40:32;;;;;;;7.85;2.15;;;17.50;1.00;;;;;;6226198;28;20050;-90
2024/03/14 12:43:33;;;;;;;7.47;2.05;;;17.50;1.00;;;;;;6242546;28;20060;-85
2024/03/14 12:46:35;;;;;;;5.57;1.90;;;17.70;1.00;;;;;;6223425;28;20519;-85
2024/03/14 12:49:37;;;;;;;7.07;1.80;;;18.10;1.00;;;;;;6247039;28;20140;-88
2024/03/14 12:52:39;;;;;;;7.68;2.72;;;18.30;1.00;;;;;;6205967;28;20050;-85
2024/03/14 12:55:43;;;;;;;4.10;1.80;;;18.40;1.00;;;;;;6245310;28;20058;-91
2024/03/14 12:58:44;;;;;;;7.47;1.83;;;19.50;1.00;;;;;;6221329;28;20390;-87
2024/03/14 13:01:46;;;;;;;4.93;1.85;;;20.60;1.00;;;;;;6221800;28;20524;-89
2024/03/14 13:04:48;;;;;;;6.70;1.75;;;21.40;1.00;;;;;;6221960;28;20058;-92
2024/03/14 13:07:50;;;;;;;5.05;1.95;;;21.60;1.00;;;;;;6206066;28;20058;-86
2024/03/14 13:10:55;;;;;;;5.10;1.70;;;21.90;1.00;;;;;;6220699;28;20123;-91
2024/03/14 13:13:59;;;;;;;5.40;1.90;;;22.00;1.00;;;;;;6214590;28;20065;-86
2024/03/14 13:17:06;;;;;;;5.10;2.20;;;22.50;1.00;;;;;;6228622;28;20052;-88
2024/03/14 13:20:08;;;;;;;5.60;1.90;;;22.70;1.00;;;;;;6205868;28;20527;-87
2024/03/14 13:23:10;;;;;;;6.15;1.88;;;22.90;1.00;;;;;;6205404;28;20080;-87
2024/03/14 13:26:12;;;;;;;6.28;1.98;;;22.80;1.00;;;;;;6240315;28;20259;-86
2024/03/14 13:29:15;;;;;;;4.57;1.70;;;22.50;1.00;;;;;;6216168;28;20061;-85
2024/03/14 13:32:17;;;;;;;4.85;2.00;;;21.70;1.00;;;;;;6229561;28;20511;-83
2024/03/14 13:35:21;;;;;;;4.93;1.70;;;21.40;1.00;;;;;;6204919;28;20057;-84
2024/03/14 13:38:26;;;;;;;8.60;2.20;;;21.50;1.00;;;;;;6245394;28;20057;-85
2024/03/14 13:41:30;;;;;;;6.15;1.85;;;21.70;1.00;;;;;;6202791;28;20219;-84
2024/03/14 13:44:33;;;;;;;5.38;2.00;;;21.90;1.00;;;;;;6193422;28;20104;-84
2024/03/14 13:47:36;;;;;;;6.75;1.83;;;22.00;1.00;;;;;;6225751;28;20393;-85
2024/03/14 13:50:39;;;;;;;7.68;2.13;;;21.80;1.00;;;;;;6220098;28;20579;-83
2024/03/14 13:53:41;;;;;;;6.85;1.95;;;21.70;1.00;;;;;;6241997;28;20462;-84
2024/03/14 13:56:47;;;;;;;5.55;1.80;;;21.30;1.00;;;;;;6244744;28;20057;-85
2024/03/14 13:59:51;;;;;;;6.38;1.80;;;21.20;1.00;;;;;;6202800;28;20177;-83
2024/03/14 14:02:58;;;;;;;6.30;1.88;;;21.20;1.00;;;;;;6243228;28;20084;-83
2024/03/14 14:06:03;;;;;;;5.03;1.73;;;21.30;1.00;;;;;;6244300;28;20492;-85
2024/03/14 14:09:09;;;;;;;6.60;2.00;;;21.60;1.00;;;;;;6219808;28;20377;-82
2024/03/14 14:12:11;;;;;;;5.78;1.77;;;21.40;1.00;;;;;;6217790;28;20058;-83
2024/03/14 14:15:15;;;;;;;5.35;1.80;;;20.80;1.00;;;;;;6233599;28;20049;-84
2024/03/14 14:18:17;;;;;;;5.60;1.83;;;20.90;1.00;;;;;;6244473;28;20136;-84
2024/03/14 14:21:19;;;;;;;5.03;1.85;;;21.50;1.00;;;;;;6219762;28;20056;-84
2024/03/14 14:24:22;;;;;;;6.10;2.10;;;21.40;1.00;;;;;;6244632;28;20052;-87
2024/03/14 14:27:23;;;;;;;7.80;1.90;;;21.30;1.00;;;;;;6220885;28;20058;-89
2024/03/14 14:30:25;;;;;;;7.40;2.03;;;21.20;1.00;;;;;;6220927;28;20516;-84
2024/03/14 14:33:27;;;;;;;8.77;1.80;;;20.70;1.00;;;;;;6203509;28;20053;-88
2024/03/14 14:36:32;;;;;;;4.90;1.77;;;19.60;1.00;;;;;;6207052;28;20513;-88
2024/03/14 14:39:35;;;;;;;7.60;2.47;;;19.60;1.00;;;;;;6204864;28;20057;-87
2024/03/14 14:42:39;;;;;;;5.28;2.00;;;19.30;1.00;;;;;;6220869;28;20505;-90
2024/03/14 14:45:41;;;;;;;5.93;1.85;;;19.20;1.00;;;;;;6224756;28;20144;-88
2024/03/14 14:48:45;;;;;;;5.45;1.70;;;19.70;1.00;;;;;;6230636;28;20063;-88
2024/03/14 14:51:49;;;;;;;8.50;1.80;;;19.70;1.00;;;;;;6223228;28;20089;-91
2024/03/14 14:54:51;;;;;;;7.07;2.05;;;19.30;1.00;;;;;;6231913;28;20061;-87
2024/03/14 14:57:56;;;;;;;6.50;2.38;;;18.90;1.00;;;;;;6211680;28;20489;-92
2024/03/14 15:00:58;;;;;;;7.63;2.35;;;18.60;1.00;;;;;;6217043;28;20058;-89
2024/03/14 15:04:00;;;;;;;7.00;2.10;;;18.40;1.00;;;;;;6219812;28;20081;-85
2024/03/14 15:07:02;;;;;;;7.97;2.22;;;18.30;1.00;;;;;;6244352;28;20065;-87
2024/03/14 15:10:07;;;;;;;4.95;1.98;;;18.00;1.00;;;;;;6227378;28;20081;-85
2024/03/14 15:13:10;;;;;;;13.98;2.53;;;18.10;1.00;;;;;;6195146;28;20045;-84
2024/03/14 15:16:12;;;;;;;15.15;3.03;;;18.00;1.00;;;;;;6245008;28;20234;-86
2024/03/14 15:19:15;;;;;;;7.88;2.45;;;17.60;1.00;;;;;;6220901;28;20545;-85
2024/03/14 15:22:18;;;;;;;10.80;2.42;;;17.50;1.00;;;;;;6244315;28;20523;-84
2024/03/14 15:25:20;;;;;;;9.73;2.70;;;17.50;1.00;;;;;;6239483;28;20527;-90
2024/03/14 15:28:23;;;;;;;6.13;2.35;;;17.40;1.00;;;;;;6227752;28;20497;-87
2024/03/14 15:31:26;;;;;;;8.65;2.45;;;17.70;1.00;;;;;;6222232;28;20520;-89
2024/03/14 15:34:34;;;;;;;9.38;2.40;;;17.30;1.00;;;;;;6228677;28;20416;-87
2024/03/14 15:37:35;;;;;;;6.20;2.10;;;17.00;1.00;;;;;;6224162;28;20064;-84
2024/03/14 15:40:38;;;;;;;5.93;2.25;;;16.90;1.00;;;;;;6227980;28;20132;-82
2024/03/14 15:43:39;;;;;;;9.13;2.58;;;16.90;1.00;;;;;;6224770;28;20661;-83
2024/03/14 15:46:41;;;;;;;8.73;2.08;;;16.70;1.00;;;;;;6223626;28;20137;-83
2024/03/14 15:49:44;;;;;;;7.75;2.03;;;16.60;1.00;;;;;;6229315;28;20576;-82
2024/03/14 15:52:46;;;;;;;10.48;2.45;;;16.60;1.00;;;;;;6223572;28;20076;-85
2024/03/14 15:55:47;;;;;;;4.93;2.20;;;16.50;1.00;;;;;;6246945;28;20057;-82
2024/03/14 15:58:49;;;;;;;6.00;2.40;;;16.50;1.00;;;;;;6226272;28;20049;-82